Time;durP1;ratioP1;P1;durP2;ratioP2;P2;SDS_P1;SDS_P2;PMS_P1;PMS_P2;Temp;Humidity;BMP_temperature;BMP_pressure;BME280_temperature;BME280_humidity;BME280_pressure;Samples;Min_cycle;Max_cycle;Signal;HPM_P1;HPM_P2
2023/12/13 00:01:50;;;;;;;;;;;6.30;99.90;;;;;;4976128;28;20408;-66
2023/12/13 00:04:16;;;;;;;;;;;6.20;99.90;;;;;;4977163;28;19945;-67
2023/12/13 00:06:41;;;;;;;;;;;6.30;99.90;;;;;;4976510;28;19970;-67
2023/12/13 00:09:10;;;;;;;;;;;6.30;99.90;;;;;;4975741;28;20345;-66
2023/12/13 00:11:36;;;;;;;;;;;6.30;99.90;;;;;;4976336;28;20002;-68
2023/12/13 00:14:01;;;;;;;;;;;6.20;99.90;;;;;;4976126;28;19943;-68
2023/12/13 00:16:27;;;;;;;;;;;6.20;99.90;;;;;;4976729;28;20002;-67
2023/12/13 00:18:52;;;;;;;;;;;6.20;99.90;;;;;;4976749;28;19948;-69
2023/12/13 00:21:18;;;;;;;;;;;6.20;99.90;;;;;;4976143;28;19988;-65
2023/12/13 00:23:45;;;;;;;;;;;6.10;99.90;;;;;;4976751;28;20421;-67
2023/12/13 00:26:15;;;;;;;;;;;6.20;99.90;;;;;;4976744;28;19972;-68
2023/12/13 00:28:40;;;;;;;;;;;6.20;99.90;;;;;;4977274;28;20009;-68
2023/12/13 00:31:06;;;;;;;;;;;6.20;99.90;;;;;;4976176;28;19957;-67
2023/12/13 00:33:33;;;;;;;;;;;6.20;99.90;;;;;;4977297;28;20409;-67
2023/12/13 00:35:58;;;;;;;;;;;6.30;99.90;;;;;;4976774;28;19980;-67
2023/12/13 00:38:24;;;;;;;;;;;6.30;99.90;;;;;;4977609;28;19953;-68
2023/12/13 00:40:49;;;;;;;;;;;6.30;99.90;;;;;;4976879;28;20440;-68
2023/12/13 00:43:15;;;;;;;;;;;6.30;99.90;;;;;;4976733;28;20374;-68
2023/12/13 00:45:40;;;;;;;;;;;6.30;99.90;;;;;;4976140;28;19982;-66
2023/12/13 00:48:05;;;;;;;;;;;6.40;99.90;;;;;;4976028;28;19953;-67
2023/12/13 00:50:32;;;;;;;;;;;6.40;99.90;;;;;;4974554;28;19969;-67
2023/12/13 00:52:57;;;;;;;;;;;6.50;99.90;;;;;;4975978;28;20032;-65
2023/12/13 00:55:23;;;;;;;;;;;6.40;99.90;;;;;;4974185;28;20450;-68
2023/12/13 00:57:48;;;;;;;;;;;6.50;99.90;;;;;;4976853;28;19976;-68
2023/12/13 01:00:14;;;;;;;;;;;6.50;99.90;;;;;;4976467;28;19968;-68
2023/12/13 01:02:40;;;;;;;;;;;6.50;99.90;;;;;;4976928;28;19956;-67
2023/12/13 01:05:06;;;;;;;;;;;6.50;99.90;;;;;;4976926;28;19971;-69
2023/12/13 01:07:32;;;;;;;;;;;6.50;99.90;;;;;;4976698;28;20036;-67
2023/12/13 01:09:57;;;;;;;;;;;6.50;99.90;;;;;;4975290;28;20018;-68
2023/12/13 01:12:23;;;;;;;;;;;6.50;99.90;;;;;;4975008;28;19958;-66
2023/12/13 01:14:48;;;;;;;;;;;6.50;99.90;;;;;;4975753;28;20411;-68
2023/12/13 01:17:14;;;;;;;;;;;6.60;99.90;;;;;;4975456;28;20074;-68
2023/12/13 01:19:39;;;;;;;;;;;6.60;99.90;;;;;;4975094;28;20008;-66
2023/12/13 01:22:04;;;;;;;;;;;6.60;99.90;;;;;;4974662;28;19956;-67
2023/12/13 01:24:30;;;;;;;;;;;6.50;99.90;;;;;;4974468;28;20048;-65
2023/12/13 01:26:57;;;;;;;;;;;6.60;99.90;;;;;;4974925;28;20443;-67
2023/12/13 01:29:22;;;;;;;;;;;6.60;99.90;;;;;;4975430;28;19951;-65
2023/12/13 01:31:48;;;;;;;;;;;6.60;99.90;;;;;;4974593;28;19973;-68
2023/12/13 01:34:15;;;;;;;;;;;6.60;99.90;;;;;;4975842;28;19948;-68
2023/12/13 01:36:41;;;;;;;;;;;6.60;99.90;;;;;;4975841;28;19957;-68
2023/12/13 01:39:07;;;;;;;;;;;6.70;99.90;;;;;;4975885;28;19996;-68
2023/12/13 01:41:33;;;;;;;;;;;6.70;99.90;;;;;;4975290;28;20070;-68
2023/12/13 01:43:58;;;;;;;;;;;6.70;99.90;;;;;;4975556;28;19977;-67
2023/12/13 01:46:24;;;;;;;;;;;6.60;99.90;;;;;;4976563;28;19977;-68
2023/12/13 01:48:50;;;;;;;;;;;6.60;99.90;;;;;;4975940;28;19953;-68
2023/12/13 01:51:15;;;;;;;;;;;6.60;99.90;;;;;;4974185;28;19976;-68
2023/12/13 01:53:41;;;;;;;;;;;6.60;99.90;;;;;;4975017;28;19957;-67
2023/12/13 01:56:07;;;;;;;;;;;6.50;99.90;;;;;;4975000;28;19959;-67
2023/12/13 01:58:39;;;;;;;;;;;6.50;99.90;;;;;;4975155;28;20417;-66
2023/12/13 02:01:07;;;;;;;;;;;6.40;99.90;;;;;;4974433;28;19971;-68
2023/12/13 02:03:34;;;;;;;;;;;6.30;99.90;;;;;;4974948;28;19957;-66
2023/12/13 02:06:00;;;;;;;;;;;6.30;99.90;;;;;;4974185;28;19947;-68
2023/12/13 02:08:26;;;;;;;;;;;6.20;99.90;;;;;;4974376;28;20477;-68
2023/12/13 02:10:52;;;;;;;;;;;6.30;99.90;;;;;;4973230;28;20058;-65
2023/12/13 02:13:17;;;;;;;;;;;6.20;99.90;;;;;;4973995;28;19972;-67
2023/12/13 02:15:43;;;;;;;;;;;6.20;99.90;;;;;;4974048;28;19988;-68
2023/12/13 02:18:11;;;;;;;;;;;6.10;99.90;;;;;;4974060;28;19969;-68
2023/12/13 02:20:37;;;;;;;;;;;6.20;99.90;;;;;;4973438;28;20458;-68
2023/12/13 02:23:03;;;;;;;;;;;6.10;99.90;;;;;;4974237;28;20359;-67
2023/12/13 02:25:39;;;;;;;;;;;6.10;99.90;;;;;;4975595;28;19978;-68
2023/12/13 02:28:05;;;;;;;;;;;6.10;99.90;;;;;;4990463;28;20052;-68
2023/12/13 02:30:31;;;;;;;;;;;6.10;99.90;;;;;;4974195;28;19969;-67
2023/12/13 02:32:56;;;;;;;;;;;6.20;99.90;;;;;;4974172;28;20421;-68
2023/12/13 02:35:23;;;;;;;;;;;6.20;99.90;;;;;;4974742;28;19957;-68
2023/12/13 02:37:49;;;;;;;;;;;6.30;99.90;;;;;;4974468;28;19959;-68
2023/12/13 02:40:15;;;;;;;;;;;6.30;99.90;;;;;;4973160;28;19970;-68
2023/12/13 02:42:41;;;;;;;;;;;6.30;99.90;;;;;;4973591;28;19957;-68
2023/12/13 02:45:08;;;;;;;;;;;6.30;99.90;;;;;;4973479;28;20018;-67
2023/12/13 02:47:34;;;;;;;;;;;6.30;99.90;;;;;;4973924;28;19952;-68
2023/12/13 02:49:59;;;;;;;;;;;6.30;99.90;;;;;;4974476;28;19973;-68
2023/12/13 02:52:25;;;;;;;;;;;6.30;99.90;;;;;;4974965;28;19956;-68
2023/12/13 02:54:50;;;;;;;;;;;6.40;99.90;;;;;;4974142;28;20411;-68
2023/12/13 02:57:16;;;;;;;;;;;6.40;99.90;;;;;;4973834;28;19974;-68
2023/12/13 02:59:41;;;;;;;;;;;6.30;99.90;;;;;;4973675;28;19956;-69
2023/12/13 03:02:07;;;;;;;;;;;6.30;99.90;;;;;;4973560;28;19964;-67
2023/12/13 03:04:32;;;;;;;;;;;6.30;99.90;;;;;;4974051;28;19964;-67
2023/12/13 03:06:58;;;;;;;;;;;6.30;99.90;;;;;;4973667;28;19980;-68
2023/12/13 03:09:23;;;;;;;;;;;6.30;99.90;;;;;;4974103;28;19968;-67
2023/12/13 03:11:49;;;;;;;;;;;6.30;99.90;;;;;;4973286;28;20011;-68
2023/12/13 03:14:14;;;;;;;;;;;6.30;99.90;;;;;;4974395;28;20400;-66
2023/12/13 03:16:40;;;;;;;;;;;6.20;99.90;;;;;;4974971;28;20398;-68
2023/12/13 03:19:05;;;;;;;;;;;6.30;99.90;;;;;;4974201;28;19989;-69
2023/12/13 03:21:31;;;;;;;;;;;6.20;99.90;;;;;;4973986;28;19970;-68
2023/12/13 03:23:56;;;;;;;;;;;6.30;99.90;;;;;;4974297;28;20356;-67
2023/12/13 03:26:22;;;;;;;;;;;6.20;99.90;;;;;;4988889;28;19973;-69
2023/12/13 03:28:47;;;;;;;;;;;6.20;99.90;;;;;;4973907;28;19952;-67
2023/12/13 03:31:14;;;;;;;;;;;6.20;99.90;;;;;;4973219;28;19961;-67
2023/12/13 03:33:39;;;;;;;;;;;6.20;99.90;;;;;;4974210;28;20030;-68
2023/12/13 03:36:12;;;;;;;;;;;6.30;99.90;;;;;;4973797;28;19987;-67
2023/12/13 03:38:37;;;;;;;;;;;6.30;99.90;;;;;;4974586;28;19975;-68
2023/12/13 03:41:03;;;;;;;;;;;6.30;99.90;;;;;;4973849;28;19968;-67
2023/12/13 03:43:28;;;;;;;;;;;6.30;99.90;;;;;;4974517;28;20054;-68
2023/12/13 03:45:54;;;;;;;;;;;6.40;99.90;;;;;;4973930;28;19965;-68
2023/12/13 03:48:19;;;;;;;;;;;6.40;99.90;;;;;;4974189;28;19957;-68
2023/12/13 03:50:45;;;;;;;;;;;6.40;99.90;;;;;;4973048;28;20355;-68
2023/12/13 03:53:10;;;;;;;;;;;6.30;99.90;;;;;;4972878;28;19952;-68
2023/12/13 03:55:36;;;;;;;;;;;6.30;99.90;;;;;;4973250;28;20403;-67
2023/12/13 03:58:01;;;;;;;;;;;6.30;99.90;;;;;;4973052;28;19951;-67
2023/12/13 04:00:26;;;;;;;;;;;6.30;99.90;;;;;;4972624;28;19966;-68
2023/12/13 04:02:52;;;;;;;;;;;6.30;99.90;;;;;;4973301;28;19960;-68
2023/12/13 04:05:17;;;;;;;;;;;6.40;99.90;;;;;;4964639;28;20057;-68
2023/12/13 04:07:43;;;;;;;;;;;6.30;99.90;;;;;;4973444;28;20365;-67
2023/12/13 04:10:09;;;;;;;;;;;6.40;99.90;;;;;;4972972;28;19975;-68
2023/12/13 04:12:34;;;;;;;;;;;6.40;99.90;;;;;;4973246;28;20001;-68
2023/12/13 04:15:00;;;;;;;;;;;6.40;99.90;;;;;;4973250;28;19995;-68
2023/12/13 04:17:25;;;;;;;;;;;6.40;99.90;;;;;;4973188;28;19947;-68
2023/12/13 04:19:51;;;;;;;;;;;6.40;99.90;;;;;;4972627;28;19960;-69
2023/12/13 04:22:16;;;;;;;;;;;6.40;99.90;;;;;;4972415;28;19949;-67
2023/12/13 04:24:41;;;;;;;;;;;6.40;99.90;;;;;;4972747;28;19950;-67
2023/12/13 04:27:08;;;;;;;;;;;6.40;99.90;;;;;;4972286;28;20731;-68
2023/12/13 04:29:34;;;;;;;;;;;6.40;99.90;;;;;;4972457;28;19938;-67
2023/12/13 04:31:59;;;;;;;;;;;6.30;99.90;;;;;;4971967;28;19939;-67
2023/12/13 04:34:24;;;;;;;;;;;6.30;99.90;;;;;;4972757;28;19986;-68
2023/12/13 04:36:50;;;;;;;;;;;6.30;99.90;;;;;;4973188;28;19941;-67
2023/12/13 04:39:15;;;;;;;;;;;6.30;99.90;;;;;;4973194;28;19936;-68
2023/12/13 04:41:41;;;;;;;;;;;6.20;99.90;;;;;;4972089;28;19955;-68
2023/12/13 04:44:08;;;;;;;;;;;6.20;99.90;;;;;;4971927;28;20409;-68
2023/12/13 04:46:33;;;;;;;;;;;6.20;99.90;;;;;;4974077;28;19987;-68
2023/12/13 04:48:59;;;;;;;;;;;6.10;99.90;;;;;;4976723;28;20030;-68
2023/12/13 04:51:24;;;;;;;;;;;6.00;99.90;;;;;;4976218;28;20006;-67
2023/12/13 04:53:50;;;;;;;;;;;6.00;99.90;;;;;;4976294;28;19934;-69
2023/12/13 04:56:15;;;;;;;;;;;6.10;99.90;;;;;;4975799;28;19940;-68
2023/12/13 04:58:41;;;;;;;;;;;6.00;99.90;;;;;;4975869;28;20398;-68
2023/12/13 05:01:06;;;;;;;;;;;6.00;99.90;;;;;;4975190;28;19950;-68
2023/12/13 05:03:32;;;;;;;;;;;6.00;99.90;;;;;;4976009;28;19987;-66
2023/12/13 05:05:58;;;;;;;;;;;6.00;99.90;;;;;;4975497;28;20322;-68
2023/12/13 05:08:23;;;;;;;;;;;6.00;99.90;;;;;;4975674;28;19951;-67
2023/12/13 05:10:49;;;;;;;;;;;6.10;99.90;;;;;;4975371;28;19951;-67
2023/12/13 05:13:14;;;;;;;;;;;6.10;99.90;;;;;;4975303;28;20376;-68
2023/12/13 05:15:40;;;;;;;;;;;6.20;99.90;;;;;;4975547;28;19937;-68
2023/12/13 05:18:05;;;;;;;;;;;6.20;99.90;;;;;;4975460;28;19944;-67
2023/12/13 05:20:31;;;;;;;;;;;6.20;99.90;;;;;;4974892;28;20018;-67
2023/12/13 05:22:56;;;;;;;;;;;6.10;99.90;;;;;;4975420;28;19941;-68
2023/12/13 05:25:22;;;;;;;;;;;6.00;99.90;;;;;;4974870;28;19956;-68
2023/12/13 05:27:47;;;;;;;;;;;5.90;99.90;;;;;;4974790;28;19954;-66
2023/12/13 05:30:13;;;;;;;;;;;5.90;99.90;;;;;;4974191;28;20015;-67
2023/12/13 05:32:38;;;;;;;;;;;5.80;99.90;;;;;;4975248;28;19947;-68
2023/12/13 05:35:04;;;;;;;;;;;5.80;99.90;;;;;;4975975;28;19938;-68
2023/12/13 05:37:29;;;;;;;;;;;5.80;99.90;;;;;;4975934;28;19938;-68
2023/12/13 05:39:55;;;;;;;;;;;5.70;99.90;;;;;;4975124;28;19960;-68
2023/12/13 05:42:20;;;;;;;;;;;5.80;99.90;;;;;;4974507;28;20034;-67
2023/12/13 05:44:46;;;;;;;;;;;5.70;99.90;;;;;;4974106;28;19936;-67
2023/12/13 05:47:12;;;;;;;;;;;5.70;99.90;;;;;;4975183;28;20331;-67
2023/12/13 05:49:37;;;;;;;;;;;5.80;99.90;;;;;;4973505;28;19944;-66
2023/12/13 05:52:03;;;;;;;;;;;5.80;99.90;;;;;;4974317;28;19942;-67
2023/12/13 05:54:28;;;;;;;;;;;5.80;99.90;;;;;;4974743;28;20405;-67
2023/12/13 05:56:54;;;;;;;;;;;5.80;99.90;;;;;;4975104;28;19943;-65
2023/12/13 05:59:19;;;;;;;;;;;5.80;99.90;;;;;;4974986;28;19931;-67
2023/12/13 06:01:45;;;;;;;;;;;5.80;99.90;;;;;;4975000;28;20038;-68
2023/12/13 06:04:10;;;;;;;;;;;5.80;99.90;;;;;;4974816;28;20297;-68
2023/12/13 06:06:36;;;;;;;;;;;5.70;99.90;;;;;;4974350;28;19966;-67
2023/12/13 06:09:02;;;;;;;;;;;5.70;99.90;;;;;;4974474;28;19937;-68
2023/12/13 06:11:28;;;;;;;;;;;5.70;99.90;;;;;;4973758;28;19956;-67
2023/12/13 06:13:54;;;;;;;;;;;5.60;99.90;;;;;;4974456;28;19943;-68
2023/12/13 06:16:20;;;;;;;;;;;5.70;99.90;;;;;;4973968;28;20023;-66
2023/12/13 06:18:45;;;;;;;;;;;5.60;99.90;;;;;;4974517;28;19938;-69
2023/12/13 06:21:11;;;;;;;;;;;5.60;99.90;;;;;;4973041;28;20444;-67
2023/12/13 06:23:37;;;;;;;;;;;5.50;99.90;;;;;;4974486;28;19935;-68
2023/12/13 06:26:03;;;;;;;;;;;5.60;99.90;;;;;;4965997;28;20092;-68
2023/12/13 06:28:28;;;;;;;;;;;5.50;99.90;;;;;;4974123;28;19973;-67
2023/12/13 06:30:54;;;;;;;;;;;5.60;99.90;;;;;;4973749;28;20366;-68
2023/12/13 06:33:19;;;;;;;;;;;5.50;99.90;;;;;;4974355;28;19941;-68
2023/12/13 06:35:45;;;;;;;;;;;5.50;99.90;;;;;;4973458;28;19940;-67
2023/12/13 06:38:10;;;;;;;;;;;5.50;99.90;;;;;;4973650;28;19945;-67
2023/12/13 06:40:36;;;;;;;;;;;5.50;99.90;;;;;;4973309;28;19963;-68
2023/12/13 06:43:01;;;;;;;;;;;5.40;99.90;;;;;;4973683;28;19943;-67
2023/12/13 06:45:27;;;;;;;;;;;5.30;99.90;;;;;;4974846;28;20066;-67
2023/12/13 06:47:52;;;;;;;;;;;5.30;99.90;;;;;;4973025;28;19957;-68
2023/12/13 06:50:18;;;;;;;;;;;5.30;99.90;;;;;;4974466;28;19958;-67
2023/12/13 06:52:47;;;;;;;;;;;5.40;99.90;;;;;;4974371;28;20397;-68
2023/12/13 06:55:12;;;;;;;;;;;5.40;99.90;;;;;;4974142;28;20463;-67
2023/12/13 06:57:38;;;;;;;;;;;5.40;99.90;;;;;;4973921;28;20003;-69
2023/12/13 07:00:05;;;;;;;;;;;5.40;99.90;;;;;;4973076;28;20310;-69
2023/12/13 07:02:31;;;;;;;;;;;5.40;99.90;;;;;;4974257;28;20050;-69
2023/12/13 07:04:56;;;;;;;;;;;5.40;99.90;;;;;;4973207;28;19931;-68
2023/12/13 07:07:22;;;;;;;;;;;5.50;99.90;;;;;;4973433;28;19932;-68
2023/12/13 07:09:48;;;;;;;;;;;5.50;99.90;;;;;;4972985;28;19943;-68
2023/12/13 07:12:13;;;;;;;;;;;5.40;99.90;;;;;;4972450;28;19950;-68
2023/12/13 07:14:39;;;;;;;;;;;5.40;99.90;;;;;;4973250;28;20399;-68
2023/12/13 07:17:04;;;;;;;;;;;5.30;99.90;;;;;;4973735;28;19940;-68
2023/12/13 07:19:29;;;;;;;;;;;5.30;99.90;;;;;;4973349;28;19979;-68
2023/12/13 07:21:55;;;;;;;;;;;5.40;99.90;;;;;;4973120;28;20335;-67
2023/12/13 07:24:20;;;;;;;;;;;5.40;99.90;;;;;;4973675;28;20408;-69
2023/12/13 07:26:46;;;;;;;;;;;5.40;99.90;;;;;;4973382;28;19953;-69
2023/12/13 07:29:12;;;;;;;;;;;5.40;99.90;;;;;;4973107;28;19994;-69
2023/12/13 07:31:39;;;;;;;;;;;5.40;99.90;;;;;;4972552;28;19990;-68
2023/12/13 07:34:05;;;;;;;;;;;5.40;99.90;;;;;;4973835;28;19932;-69
2023/12/13 07:36:30;;;;;;;;;;;5.50;99.90;;;;;;4964547;28;20030;-68
2023/12/13 07:38:56;;;;;;;;;;;5.50;99.90;;;;;;4973497;28;19947;-68
2023/12/13 07:41:21;;;;;;;;;;;5.50;99.90;;;;;;4971136;28;20435;-68
2023/12/13 07:43:47;;;;;;;;;;;5.50;99.90;;;;;;4973658;28;19958;-69
2023/12/13 07:46:13;;;;;;;;;;;5.50;99.90;;;;;;4972519;28;20023;-68
2023/12/13 07:48:39;;;;;;;;;;;5.60;99.90;;;;;;4972381;28;19961;-69
2023/12/13 07:51:04;;;;;;;;;;;5.60;99.90;;;;;;4970832;28;19959;-69
2023/12/13 07:53:30;;;;;;;;;;;5.70;99.90;;;;;;4970954;28;19995;-68
2023/12/13 07:55:55;;;;;;;;;;;5.80;99.90;;;;;;4972395;28;20340;-67
2023/12/13 07:58:21;;;;;;;;;;;5.80;99.90;;;;;;4967554;28;20028;-69
2023/12/13 08:00:46;;;;;;;;;;;5.80;99.90;;;;;;4964109;28;19954;-69
2023/12/13 08:03:12;;;;;;;;;;;5.80;99.90;;;;;;4968233;28;20374;-68
2023/12/13 08:05:37;;;;;;;;;;;5.90;99.90;;;;;;4972252;28;19957;-69
2023/12/13 08:08:03;;;;;;;;;;;5.90;99.90;;;;;;4972342;28;19939;-67
2023/12/13 08:10:28;;;;;;;;;;;6.00;99.90;;;;;;4971450;28;19962;-69
2023/12/13 08:12:54;;;;;;;;;;;6.10;99.90;;;;;;4971964;28;20392;-68
2023/12/13 08:15:19;;;;;;;;;;;6.10;99.90;;;;;;4971844;28;19931;-69
2023/12/13 08:17:45;;;;;;;;;;;6.10;99.90;;;;;;4972651;28;19947;-69
2023/12/13 08:20:11;;;;;;;;;;;6.20;99.90;;;;;;4971874;28;20058;-67
2023/12/13 08:22:37;;;;;;;;;;;6.20;99.90;;;;;;4976549;28;19967;-68
2023/12/13 08:25:03;;;;;;;;;;;6.30;99.90;;;;;;4975906;28;19963;-68
2023/12/13 08:27:29;;;;;;;;;;;6.30;99.90;;;;;;4975721;28;19953;-68
2023/12/13 08:29:54;;;;;;;;;;;6.40;99.90;;;;;;4975716;28;20019;-67
2023/12/13 08:32:20;;;;;;;;;;;6.40;99.90;;;;;;4976163;28;20437;-68
2023/12/13 08:34:45;;;;;;;;;;;6.50;99.90;;;;;;4976536;28;20329;-68
2023/12/13 08:37:11;;;;;;;;;;;6.50;99.90;;;;;;4976544;28;19972;-68
2023/12/13 08:39:37;;;;;;;;;;;6.50;99.90;;;;;;4976719;28;20033;-68
2023/12/13 08:42:03;;;;;;;;;;;6.50;99.90;;;;;;4975609;28;19975;-68
2023/12/13 08:44:29;;;;;;;;;;;6.60;99.90;;;;;;4975980;28;20003;-67
2023/12/13 08:46:55;;;;;;;;;;;6.50;99.90;;;;;;4975992;28;20345;-67
2023/12/13 08:49:20;;;;;;;;;;;6.50;99.90;;;;;;4975651;28;19947;-68
2023/12/13 08:51:49;;;;;;;;;;;6.50;99.90;;;;;;4973375;28;20046;-67
2023/12/13 08:54:15;;;;;;;;;;;6.40;99.90;;;;;;4975278;28;19949;-68
2023/12/13 08:56:40;;;;;;;;;;;6.30;99.90;;;;;;4975033;28;19989;-67
2023/12/13 08:59:06;;;;;;;;;;;6.30;99.90;;;;;;4974976;28;20016;-68
2023/12/13 09:01:31;;;;;;;;;;;6.30;99.90;;;;;;4974842;28;19975;-67
2023/12/13 09:03:57;;;;;;;;;;;6.30;99.90;;;;;;4975136;28;19972;-65
2023/12/13 09:06:22;;;;;;;;;;;6.20;99.90;;;;;;4973566;28;19976;-67
2023/12/13 09:08:48;;;;;;;;;;;6.10;99.90;;;;;;4975091;28;19986;-68
2023/12/13 09:11:13;;;;;;;;;;;6.10;99.90;;;;;;4973975;28;20402;-67
2023/12/13 09:13:39;;;;;;;;;;;6.20;99.90;;;;;;4974858;28;19949;-68
2023/12/13 09:16:04;;;;;;;;;;;6.20;99.90;;;;;;4975094;28;19959;-69
2023/12/13 09:18:30;;;;;;;;;;;6.20;99.90;;;;;;4975518;28;20043;-68
2023/12/13 09:20:55;;;;;;;;;;;6.30;99.90;;;;;;4974459;28;19977;-68
2023/12/13 09:23:25;;;;;;;;;;;6.40;99.90;;;;;;4974866;28;20022;-68
2023/12/13 09:25:51;;;;;;;;;;;6.50;99.90;;;;;;4975231;28;20334;-68
2023/12/13 09:28:17;;;;;;;;;;;6.60;99.90;;;;;;4974136;28;20038;-68
2023/12/13 09:30:42;;;;;;;;;;;6.80;99.90;;;;;;4973810;28;20500;-68
2023/12/13 09:33:08;;;;;;;;;;;6.90;99.90;;;;;;4973453;28;20050;-67
2023/12/13 09:35:33;;;;;;;;;;;7.00;99.90;;;;;;4973177;28;19991;-68
2023/12/13 09:37:59;;;;;;;;;;;7.10;99.90;;;;;;4974262;28;19962;-69
2023/12/13 09:40:24;;;;;;;;;;;7.30;99.90;;;;;;4973543;28;19981;-68
2023/12/13 09:42:50;;;;;;;;;;;7.40;99.90;;;;;;4973939;28;19978;-68
2023/12/13 09:45:20;;;;;;;;;;;7.60;99.90;;;;;;4973845;28;19957;-68
2023/12/13 09:47:46;;;;;;;;;;;7.70;99.90;;;;;;4974503;28;19952;-67
2023/12/13 09:50:11;;;;;;;;;;;7.80;99.90;;;;;;4969800;28;20343;-66
2023/12/13 09:52:37;;;;;;;;;;;7.90;99.90;;;;;;4970472;28;19953;-65
2023/12/13 09:55:07;;;;;;;;;;;8.00;99.90;;;;;;4973157;28;19957;-65
2023/12/13 09:57:32;;;;;;;;;;;8.10;99.90;;;;;;4972932;28;20069;-65
2023/12/13 09:59:58;;;;;;;;;;;8.10;99.90;;;;;;4972262;28;20398;-66
2023/12/13 10:02:23;;;;;;;;;;;8.20;99.90;;;;;;4973206;28;20012;-66
2023/12/13 10:04:50;;;;;;;;;;;8.30;99.90;;;;;;4973006;28;19967;-66
2023/12/13 10:07:16;;;;;;;;;;;8.30;99.90;;;;;;4972502;28;20025;-66
2023/12/13 10:09:42;;;;;;;;;;;8.40;99.90;;;;;;4972673;28;19969;-65
2023/12/13 10:12:07;;;;;;;;;;;8.50;99.90;;;;;;4972011;28;19961;-66
2023/12/13 10:14:36;;;;;;;;;;;8.60;99.90;;;;;;4972832;28;19953;-67
2023/12/13 10:17:02;;;;;;;;;;;8.60;99.90;;;;;;4972715;28;19946;-66
2023/12/13 10:19:27;;;;;;;;;;;8.60;99.90;;;;;;4972864;28;19959;-66
2023/12/13 10:21:52;;;;;;;;;;;8.60;99.90;;;;;;4971788;28;20376;-68
2023/12/13 10:24:20;;;;;;;;;;;8.60;99.90;;;;;;4972431;28;20016;-66
2023/12/13 10:26:46;;;;;;;;;;;8.50;99.90;;;;;;4972279;28;20417;-66
2023/12/13 10:29:11;;;;;;;;;;;8.60;99.90;;;;;;4972488;28;19990;-67
2023/12/13 10:31:37;;;;;;;;;;;8.60;99.90;;;;;;4971564;28;19959;-65
2023/12/13 10:34:02;;;;;;;;;;;8.60;99.90;;;;;;4972321;28;19959;-66
2023/12/13 10:36:28;;;;;;;;;;;8.70;99.90;;;;;;4972453;28;20043;-65
2023/12/13 10:38:54;;;;;;;;;;;8.70;99.90;;;;;;4972143;28;19937;-66
2023/12/13 10:41:26;;;;;;;;;;;8.70;99.90;;;;;;4971271;28;19946;-65
2023/12/13 10:43:57;;;;;;;;;;;8.80;99.90;;;;;;4971524;28;19930;-65
2023/12/13 10:46:25;;;;;;;;;;;8.80;99.90;;;;;;4972135;28;20192;-65
2023/12/13 10:48:52;;;;;;;;;;;8.80;99.90;;;;;;4971994;28;20027;-68
2023/12/13 10:51:18;;;;;;;;;;;8.70;99.90;;;;;;4971304;28;20674;-65
2023/12/13 10:53:45;;;;;;;;;;;8.80;99.90;;;;;;4972116;28;20312;-66
2023/12/13 10:56:11;;;;;;;;;;;8.80;99.90;;;;;;4972021;28;19938;-65
2023/12/13 10:58:37;;;;;;;;;;;8.80;99.90;;;;;;4971893;28;19931;-63
2023/12/13 11:01:03;;;;;;;;;;;8.80;99.90;;;;;;4971146;28;19951;-64
2023/12/13 11:03:47;;;;;;;;;;;8.80;99.90;;;;;;4971912;28;19953;-64
2023/12/13 11:06:14;;;;;;;;;;;8.90;99.90;;;;;;4971642;28;19958;-64
2023/12/13 11:08:40;;;;;;;;;;;9.00;99.90;;;;;;4971932;28;19954;-64
2023/12/13 11:11:07;;;;;;;;;;;9.10;99.90;;;;;;4971006;28;19981;-64
2023/12/13 11:13:38;;;;;;;;;;;9.10;99.90;;;;;;4971638;28;19968;-66
2023/12/13 11:16:12;;;;;;;;;;;9.20;99.90;;;;;;4971638;28;19940;-66
2023/12/13 11:18:37;;;;;;;;;;;9.20;99.90;;;;;;4971616;28;20301;-67
2023/12/13 11:21:04;;;;;;;;;;;9.20;99.90;;;;;;4971064;28;19967;-65
2023/12/13 11:23:31;;;;;;;;;;;9.20;99.90;;;;;;4971583;28;19972;-66
2023/12/13 11:25:57;;;;;;;;;;;9.10;99.90;;;;;;4971393;28;19942;-66
2023/12/13 11:28:23;;;;;;;;;;;9.10;99.90;;;;;;4971479;28;19959;-67
2023/12/13 11:30:48;;;;;;;;;;;9.30;99.90;;;;;;4970754;28;19975;-68
2023/12/13 11:33:14;;;;;;;;;;;9.50;99.90;;;;;;4971378;28;20288;-67
2023/12/13 11:35:40;;;;;;;;;;;9.90;99.90;;;;;;4971357;28;19977;-67
2023/12/13 11:38:06;;;;;;;;;;;10.40;99.90;;;;;;4971134;28;20404;-68
2023/12/13 11:40:31;;;;;;;;;;;10.90;99.90;;;;;;4970587;28;20374;-66
2023/12/13 11:42:57;;;;;;;;;;;11.20;99.90;;;;;;4970214;28;20309;-68
2023/12/13 11:45:22;;;;;;;;;;;11.40;99.90;;;;;;4970810;28;19957;-65
2023/12/13 11:47:49;;;;;;;;;;;11.40;99.90;;;;;;4971420;28;20291;-67
2023/12/13 11:50:16;;;;;;;;;;;11.40;99.90;;;;;;4970515;28;20009;-67
2023/12/13 11:52:43;;;;;;;;;;;11.50;99.90;;;;;;4971547;28;19929;-67
2023/12/13 11:55:08;;;;;;;;;;;11.40;99.90;;;;;;4970701;28;19914;-68
2023/12/13 11:57:34;;;;;;;;;;;11.40;99.90;;;;;;4971096;28;19954;-66
2023/12/13 12:00:00;;;;;;;;;;;11.50;99.90;;;;;;4970351;28;19945;-66
2023/12/13 12:02:25;;;;;;;3.60;1.00;;;11.60;99.90;;;;;;4970087;28;20945;-63
2023/12/13 12:04:51;;;;;;;7.43;1.70;;;11.60;99.90;;;;;;4971015;28;20189;-62
2023/12/13 12:07:18;;;;;;;3.70;1.53;;;11.80;99.90;;;;;;4970387;28;20618;-60
2023/12/13 12:09:50;;;;;;;7.53;2.17;;;11.80;99.90;;;;;;4970430;28;20236;-64
2023/12/13 12:12:19;;;;;;;6.53;2.50;;;11.70;99.90;;;;;;4969825;28;20185;-63
2023/12/13 12:14:48;;;;;;;11.27;3.83;;;11.80;99.90;;;;;;4970577;28;20186;-63
2023/12/13 12:17:19;;;;;;;15.27;4.70;;;11.70;99.90;;;;;;4970396;28;20449;-64
2023/12/13 12:19:45;;;;;;;13.07;4.00;;;11.70;99.90;;;;;;4970410;28;20197;-62
2023/12/13 12:22:12;;;;;;;9.13;3.00;;;11.60;99.90;;;;;;4969851;28;20270;-61
2023/12/13 12:24:37;;;;;;;6.70;2.50;;;11.40;99.90;;;;;;4970519;28;20667;-61
2023/12/13 12:27:07;;;;;;;5.83;2.17;;;11.20;99.90;;;;;;4969026;28;20212;-61
2023/12/13 12:29:33;;;;;;;6.37;2.17;;;11.20;99.90;;;;;;4963678;28;20286;-64
2023/12/13 12:31:58;;;;;;;9.07;2.10;;;11.20;99.90;;;;;;4964013;28;20293;-63
2023/12/13 12:34:25;;;;;;;5.10;2.10;;;11.20;99.90;;;;;;4962761;28;20185;-62
2023/12/13 12:36:50;;;;;;;5.57;1.77;;;11.00;99.90;;;;;;4970222;28;20190;-63
2023/12/13 12:39:16;;;;;;;4.73;2.00;;;10.80;99.90;;;;;;4970946;28;20259;-62
2023/12/13 12:41:42;;;;;;;5.87;2.70;;;10.60;99.90;;;;;;4970748;28;20309;-63
2023/12/13 12:44:08;;;;;;;6.77;3.40;;;10.60;99.90;;;;;;4971020;28;20708;-62
2023/12/13 12:46:33;;;;;;;10.30;3.23;;;10.60;99.90;;;;;;4967679;28;20727;-62
2023/12/13 12:48:59;;;;;;;3.10;1.83;;;10.50;99.90;;;;;;4970430;28;20666;-62
2023/12/13 12:51:25;;;;;;;4.10;1.73;;;10.40;99.90;;;;;;4961312;28;20301;-63
2023/12/13 12:53:50;;;;;;;3.87;1.77;;;10.30;99.90;;;;;;4970149;28;20181;-62
2023/12/13 12:56:16;;;;;;;3.63;1.83;;;10.30;99.90;;;;;;4969884;28;20196;-61
2023/12/13 12:58:41;;;;;;;7.47;2.07;;;10.50;99.90;;;;;;4969925;28;20280;-61
2023/12/13 13:01:07;;;;;;;7.33;2.13;;;10.50;99.90;;;;;;4969375;28;20509;-62
2023/12/13 13:03:33;;;;;;;5.27;2.30;;;10.50;99.90;;;;;;4969933;28;20185;-62
2023/12/13 13:05:58;;;;;;;5.47;2.67;;;10.60;99.90;;;;;;4970073;28;20206;-65
2023/12/13 13:08:25;;;;;;;8.93;3.10;;;10.80;99.90;;;;;;4971742;28;20182;-61
2023/12/13 13:10:51;;;;;;;11.33;3.87;;;11.00;99.90;;;;;;4973173;28;20237;-59
2023/12/13 13:13:16;;;;;;;8.17;4.07;;;11.30;99.90;;;;;;4971272;28;20225;-61
2023/12/13 13:15:42;;;;;;;13.00;3.13;;;11.60;99.90;;;;;;4967916;28;20674;-60
2023/12/13 13:18:08;;;;;;;18.57;7.50;;;11.70;99.90;;;;;;4973122;28;20189;-61
2023/12/13 13:20:34;;;;;;;12.13;2.33;;;11.80;99.90;;;;;;4972545;28;20236;-59
2023/12/13 13:23:00;;;;;;;8.33;2.13;;;11.70;99.90;;;;;;4972939;28;20549;-62
2023/12/13 13:25:25;;;;;;;7.33;2.10;;;11.60;99.90;;;;;;4972047;28;20209;-61
2023/12/13 13:27:53;;;;;;;11.83;4.80;;;11.70;99.90;;;;;;4965911;28;20201;-58
2023/12/13 13:30:19;;;;;;;5.63;2.20;;;11.50;99.90;;;;;;4964690;28;20254;-61
2023/12/13 13:32:45;;;;;;;6.03;2.20;;;11.30;99.90;;;;;;4966950;28;20698;-62
2023/12/13 13:35:10;;;;;;;8.17;2.40;;;10.90;99.90;;;;;;4971378;28;20190;-61
2023/12/13 13:37:36;;;;;;;4.37;2.00;;;10.90;99.90;;;;;;4960553;28;20191;-63
2023/12/13 13:40:06;;;;;;;6.93;2.10;;;11.00;99.90;;;;;;4966638;28;20785;-60
2023/12/13 13:42:32;;;;;;;10.87;3.23;;;11.10;99.90;;;;;;4972536;28;20210;-59
2023/12/13 13:44:57;;;;;;;13.53;4.20;;;11.10;99.90;;;;;;4972829;28;20280;-63
2023/12/13 13:47:23;;;;;;;16.07;4.17;;;11.20;99.90;;;;;;4972597;28;20280;-59
2023/12/13 13:49:49;;;;;;;14.60;2.97;;;11.20;99.90;;;;;;4972580;28;20276;-59
2023/12/13 13:52:14;;;;;;;8.80;2.83;;;11.30;99.90;;;;;;4971855;28;20564;-56
2023/12/13 13:54:40;;;;;;;2.67;1.60;;;11.40;99.90;;;;;;4972654;28;20181;-58
2023/12/13 13:57:06;;;;;;;5.17;2.13;;;11.30;99.90;;;;;;4972394;28;20221;-60
2023/12/13 13:59:32;;;;;;;4.37;1.43;;;11.40;99.90;;;;;;4972146;28;20209;-60
2023/12/13 14:01:57;;;;;;;8.63;2.40;;;11.50;99.90;;;;;;4971774;28;20252;-57
2023/12/13 14:04:24;;;;;;;4.90;2.20;;;11.50;99.90;;;;;;4972274;28;20192;-58